Terminal Aerodrome Forecast
Issued by NWS

Home | Current Version | Previous Version | Text Only | Print | Product List | Glossary On
Versions: 1 2 3 4 5 6 7 8 9 10 11 12 13 14 15
000
FTUS46 KLOX 052347
TAFPMD
TAF
KPMD 052347Z 0600/0624 26018G24KT P6SM SKC
     FM060300 24012KT P6SM SKC
     FM060800 20007KT P6SM SKC
     FM061400 VRB03KT P6SM SKC
     FM061600 24008KT P6SM SKC
     FM061900 25012G20KT P6SM SKC
     FM062200 25018G28KT P6SM SKC=

USA.gov is the U.S. government's official web portal to all federal, state and local government web resources and services.